createdAt,value
2018-04-23T00:01:14.323Z,29.54
2018-04-23T00:03:43.461Z,30.50
2018-04-23T00:06:12.749Z,29.74
2018-04-23T00:08:41.687Z,29.80
2018-04-23T00:11:09.977Z,32.00
2018-04-23T00:13:38.253Z,30.60
2018-04-23T00:16:07.448Z,33.90
2018-04-23T00:18:35.752Z,31.36
2018-04-23T00:21:04.010Z,32.48
2018-04-23T00:23:32.274Z,33.38
2018-04-23T00:26:00.569Z,32.70
2018-04-23T00:28:28.872Z,30.60
2018-04-23T00:30:58.100Z,34.12
2018-04-23T00:33:26.397Z,33.68
2018-04-23T00:35:55.781Z,34.38
2018-04-23T00:38:24.293Z,32.64
2018-04-23T00:40:53.205Z,29.48
2018-04-23T00:43:21.533Z,34.50
2018-04-23T00:45:49.810Z,36.36
2018-04-23T00:48:18.063Z,36.26
2018-04-23T00:50:46.368Z,36.24
2018-04-23T00:53:27.293Z,37.64
2018-04-23T00:55:55.573Z,37.06
2018-04-23T00:58:23.885Z,36.44
2018-04-23T01:00:52.179Z,33.06
2018-04-23T01:03:21.371Z,32.78
2018-04-23T01:05:49.664Z,30.42
2018-04-23T01:08:17.934Z,34.06
2018-04-23T01:10:46.220Z,30.80
2018-04-23T01:13:14.509Z,28.28
2018-04-23T01:15:43.818Z,28.68
2018-04-23T01:18:14.085Z,27.60
2018-04-23T01:20:43.455Z,28.54
2018-04-23T01:23:14.605Z,30.86
2018-04-23T01:25:44.144Z,29.76
2018-04-23T01:28:13.725Z,27.74
2018-04-23T01:30:42.002Z,28.84
2018-04-23T01:33:10.325Z,28.92
2018-04-23T01:35:38.590Z,28.34
2018-04-23T01:38:07.844Z,26.24
2018-04-23T01:40:36.168Z,26.94
2018-04-23T01:43:04.428Z,27.58
2018-04-23T01:45:32.731Z,27.54
2018-04-23T01:48:01.053Z,26.50
2018-04-23T01:50:29.336Z,26.82
2018-04-23T01:52:57.629Z,25.68
2018-04-23T01:55:25.922Z,24.56
2018-04-23T01:57:54.386Z,23.22
2018-04-23T02:00:23.425Z,21.06
2018-04-23T02:02:51.706Z,21.06
2018-04-23T02:05:20.005Z,21.78
2018-04-23T02:07:47.547Z,18.28
2018-04-23T02:10:15.825Z,20.88
2018-04-23T02:12:43.356Z,19.76
2018-04-23T02:15:13.597Z,18.98
2018-04-23T02:17:41.893Z,18.06
2018-04-23T02:20:09.395Z,18.52
2018-04-23T02:22:37.696Z,19.26
2018-04-23T02:25:06.882Z,20.06
2018-04-23T02:27:35.188Z,18.94
2018-04-23T02:30:03.483Z,16.72
2018-04-23T02:32:31.771Z,15.60
2018-04-23T02:35:00.061Z,16.40
2018-04-23T02:37:27.598Z,14.76
2018-04-23T02:39:55.852Z,14.34
2018-04-23T02:42:25.435Z,14.28
2018-04-23T02:44:53.720Z,14.20
2018-04-23T02:47:26.591Z,15.32
2018-04-23T02:49:55.441Z,14.64
2018-04-23T02:52:23.777Z,15.82
2018-04-23T02:54:52.046Z,14.22
2018-04-23T02:57:20.336Z,14.66
2018-04-23T02:59:48.594Z,14.80
2018-04-23T03:02:16.858Z,15.40
2018-04-23T03:04:45.150Z,15.26
2018-04-23T03:07:13.409Z,16.20
2018-04-23T03:09:44.925Z,17.58
2018-04-23T03:12:13.278Z,17.12
2018-04-23T03:14:42.387Z,16.56
2018-04-23T03:17:10.671Z,17.42
2018-04-23T03:19:39.002Z,18.76
2018-04-23T03:22:07.300Z,17.62
2018-04-23T03:24:35.640Z,18.06
2018-04-23T03:27:03.897Z,19.30
2018-04-23T03:29:32.148Z,17.88
2018-04-23T03:32:00.425Z,18.32
2018-04-23T03:34:28.716Z,17.60
2018-04-23T03:37:00.980Z,17.92
2018-04-23T03:39:29.268Z,17.86
2018-04-23T03:41:57.625Z,16.16
2018-04-23T03:44:25.904Z,17.38
2018-04-23T03:46:55.356Z,16.54
2018-04-23T03:49:24.479Z,16.86
2018-04-23T03:51:52.822Z,15.82
2018-04-23T03:54:21.133Z,18.20
2018-04-23T03:56:48.640Z,15.84
2018-04-23T03:59:16.149Z,16.62
2018-04-23T04:01:44.483Z,18.56
2018-04-23T04:04:13.920Z,15.78
2018-04-23T04:06:43.339Z,16.30
2018-04-23T04:09:13.940Z,14.42
2018-04-23T04:11:43.161Z,14.06
2018-04-23T04:14:24.133Z,13.42
2018-04-23T04:16:57.284Z,13.42
2018-04-23T04:19:31.317Z,13.00
2018-04-23T04:21:59.594Z,13.04
2018-04-23T04:24:27.908Z,11.70
2018-04-23T04:26:56.217Z,12.64
2018-04-23T04:29:28.464Z,12.90
2018-04-23T04:31:56.730Z,11.54
2018-04-23T04:34:28.589Z,12.12
2018-04-23T04:36:56.857Z,13.18
2018-04-23T04:39:25.129Z,12.02
2018-04-23T04:41:54.728Z,11.28
2018-04-23T04:44:23.468Z,12.16
2018-04-23T04:46:51.748Z,12.28
2018-04-23T04:49:20.056Z,12.24
2018-04-23T04:51:47.595Z,13.84
2018-04-23T04:54:19.121Z,12.42
2018-04-23T04:56:47.392Z,11.78
2018-04-23T04:59:15.701Z,13.24
2018-04-23T05:01:43.228Z,12.38
2018-04-23T05:04:12.637Z,12.40
2018-04-23T05:06:41.709Z,14.34
2018-04-23T05:09:10.033Z,12.62
2018-04-23T05:11:38.319Z,11.34
2018-04-23T05:14:06.584Z,12.92
2018-04-23T05:16:40.567Z,12.52
2018-04-23T05:19:08.830Z,12.00
2018-04-23T05:21:36.362Z,12.22
2018-04-23T05:24:04.623Z,11.78
2018-04-23T05:26:32.909Z,12.14
2018-04-23T05:29:01.175Z,11.76
2018-04-23T05:31:30.409Z,10.94
2018-04-23T05:33:58.684Z,10.72
2018-04-23T05:36:26.980Z,11.92
2018-04-23T05:38:55.257Z,12.20
2018-04-23T05:41:24.845Z,12.98
2018-04-23T05:43:54.071Z,10.74
2018-04-23T05:46:22.372Z,11.86
2018-04-23T05:48:50.629Z,10.36
2018-04-23T05:51:18.897Z,9.36
2018-04-23T05:53:47.197Z,10.90
2018-04-23T05:56:15.497Z,10.88
2018-04-23T05:58:43.793Z,10.76
2018-04-23T06:01:12.063Z,11.00
2018-04-23T06:03:42.320Z,10.94
2018-04-23T06:06:10.594Z,10.54
2018-04-23T06:08:38.913Z,12.26
2018-04-23T06:11:07.194Z,10.34
2018-04-23T06:13:35.448Z,11.08
2018-04-23T06:16:11.574Z,11.74
2018-04-23T06:18:39.873Z,11.44
2018-04-23T06:21:08.166Z,12.28
2018-04-23T06:23:36.430Z,11.50
2018-04-23T06:26:04.732Z,11.74
2018-04-23T06:28:32.993Z,11.88
2018-04-23T06:31:01.299Z,12.86
2018-04-23T06:33:29.580Z,11.78
2018-04-23T06:35:57.880Z,11.14
2018-04-23T06:38:26.148Z,12.58
2018-04-23T06:40:54.432Z,10.96
2018-04-23T06:43:22.712Z,12.88
2018-04-23T06:45:51.938Z,12.50
2018-04-23T06:48:20.224Z,11.92
2018-04-23T06:50:48.487Z,12.62
2018-04-23T06:53:16.810Z,12.28
2018-04-23T06:55:45.127Z,13.04
2018-04-23T06:58:13.428Z,12.98
2018-04-23T07:00:42.629Z,12.14
2018-04-23T07:03:11.675Z,12.80
2018-04-23T07:05:39.969Z,12.36
2018-04-23T07:08:08.220Z,10.98
2018-04-23T07:10:35.741Z,11.70
2018-04-23T07:13:04.014Z,12.26
2018-04-23T07:15:32.343Z,11.80
2018-04-23T07:18:00.617Z,12.66
2018-04-23T07:20:30.021Z,14.22
2018-04-23T07:22:59.112Z,12.66
2018-04-23T07:25:28.257Z,11.64
2018-04-23T07:27:56.513Z,11.04
2018-04-23T07:30:24.040Z,12.48
2018-04-23T07:32:52.304Z,11.74
2018-04-23T07:35:20.592Z,12.52
2018-04-23T07:37:48.879Z,12.90
2018-04-23T07:40:22.993Z,10.36
2018-04-23T07:42:51.282Z,10.58
2018-04-23T07:45:19.560Z,12.30
2018-04-23T07:47:47.915Z,11.46
2018-04-23T07:50:17.165Z,13.22
2018-04-23T07:52:45.453Z,11.16
2018-04-23T07:55:13.739Z,11.32
2018-04-23T07:57:41.858Z,11.48
2018-04-23T08:00:10.157Z,12.14
2018-04-23T08:02:38.419Z,13.80
2018-04-23T08:05:06.710Z,10.38
2018-04-23T08:07:34.957Z,9.86
2018-04-23T08:10:03.235Z,11.54
2018-04-23T08:12:31.553Z,11.12
2018-04-23T08:14:59.827Z,11.34
2018-04-23T08:17:28.121Z,9.16
2018-04-23T08:19:56.378Z,9.54
2018-04-23T08:22:28.885Z,9.80
2018-04-23T08:24:57.559Z,10.00
2018-04-23T08:27:32.028Z,9.48
2018-04-23T08:30:00.287Z,10.34
2018-04-23T08:32:29.762Z,8.98
2018-04-23T08:34:58.050Z,9.74
2018-04-23T08:37:26.360Z,10.74
2018-04-23T08:39:54.625Z,10.74
2018-04-23T08:42:22.121Z,9.52
2018-04-23T08:44:50.430Z,10.70
2018-04-23T08:47:18.688Z,11.12
2018-04-23T08:49:46.951Z,10.40
2018-04-23T08:52:15.270Z,10.04
2018-04-23T08:54:43.565Z,9.94
2018-04-23T08:57:12.742Z,11.44
2018-04-23T08:59:41.688Z,10.16
2018-04-23T09:02:09.989Z,10.26
2018-04-23T09:04:38.252Z,10.70
2018-04-23T09:07:06.541Z,9.56
2018-04-23T09:09:34.859Z,10.52
2018-04-23T09:12:03.153Z,10.82
2018-04-23T09:14:31.418Z,9.64
2018-04-23T09:16:59.722Z,10.34
2018-04-23T09:19:33.693Z,10.96
2018-04-23T09:22:01.980Z,11.34
2018-04-23T09:24:30.247Z,8.60
2018-04-23T09:26:59.840Z,7.82
2018-04-23T09:29:28.106Z,6.70
2018-04-23T09:31:58.398Z,6.34
2018-04-23T09:34:26.660Z,7.86
2018-04-23T09:36:54.946Z,7.38
2018-04-23T09:39:23.233Z,7.74
2018-04-23T09:41:51.500Z,8.36
2018-04-23T09:44:19.789Z,8.96
2018-04-23T09:46:55.140Z,8.26
2018-04-23T09:49:23.393Z,6.92
2018-04-23T09:51:50.913Z,9.46
2018-04-23T09:54:19.177Z,9.16
2018-04-23T09:56:47.465Z,9.00
2018-04-23T09:59:15.756Z,8.56
2018-04-23T10:01:50.942Z,7.72
2018-04-23T10:04:21.004Z,7.72
2018-04-23T10:06:49.269Z,7.54
2018-04-23T10:09:17.561Z,8.58
2018-04-23T10:11:45.844Z,8.56
2018-04-23T10:14:14.096Z,8.48
2018-04-23T10:16:43.552Z,9.16
2018-04-23T10:19:12.849Z,7.80
2018-04-23T10:21:42.193Z,8.52
2018-04-23T10:24:10.453Z,8.90
2018-04-23T10:26:38.753Z,8.92
2018-04-23T10:29:07.054Z,7.78
2018-04-23T10:31:38.884Z,8.84
2018-04-23T10:34:07.167Z,8.76
2018-04-23T10:36:35.454Z,8.52
2018-04-23T10:39:02.973Z,8.68
2018-04-23T10:41:31.253Z,8.24
2018-04-23T10:43:59.585Z,10.54
2018-04-23T10:46:28.885Z,10.10
2018-04-23T10:48:57.667Z,9.62
2018-04-23T10:51:27.709Z,10.86
2018-04-23T10:53:55.992Z,10.94
2018-04-23T10:56:24.286Z,9.28
2018-04-23T10:58:51.793Z,8.64
2018-04-23T11:01:20.073Z,8.90
2018-04-23T11:03:48.373Z,8.48
2018-04-23T11:06:16.687Z,10.48
2018-04-23T11:08:44.959Z,10.80
2018-04-23T11:11:13.245Z,11.74
2018-04-23T11:13:43.622Z,11.32
2018-04-23T11:16:11.925Z,10.18
2018-04-23T11:18:40.218Z,11.56
2018-04-23T11:21:08.473Z,10.70
2018-04-23T11:23:36.773Z,9.30
2018-04-23T11:26:05.033Z,8.24
2018-04-23T11:28:33.330Z,8.48
2018-04-23T11:31:01.605Z,10.16
2018-04-23T11:33:29.869Z,12.40
2018-04-23T11:35:58.166Z,10.08
2018-04-23T11:38:26.424Z,11.46
2018-04-23T11:40:53.944Z,10.32
2018-04-23T11:43:22.205Z,10.02
2018-04-23T11:45:50.541Z,12.28
2018-04-23T11:48:18.833Z,11.12
2018-04-23T11:50:47.117Z,11.02
2018-04-23T11:53:15.380Z,13.22
2018-04-23T11:55:43.834Z,14.68
2018-04-23T11:58:13.261Z,14.00
2018-04-23T12:00:42.956Z,14.24
2018-04-23T12:03:12.368Z,14.12
2018-04-23T12:05:40.674Z,15.04
2018-04-23T12:08:08.989Z,14.74
2018-04-23T12:10:37.289Z,13.88
2018-04-23T12:13:04.801Z,13.78
2018-04-23T12:15:33.097Z,16.24
2018-04-23T12:18:01.429Z,17.04
2018-04-23T12:20:29.974Z,17.66
2018-04-23T12:22:58.606Z,14.42
2018-04-23T12:25:26.913Z,13.68
2018-04-23T12:27:55.928Z,16.20
2018-04-23T12:30:24.197Z,16.44
2018-04-23T12:32:52.513Z,15.18
2018-04-23T12:35:20.945Z,13.98
2018-04-23T12:37:49.253Z,13.56
2018-04-23T12:40:17.957Z,14.44
2018-04-23T12:42:54.029Z,14.46
2018-04-23T12:45:22.329Z,16.52
2018-04-23T12:47:51.584Z,16.62
2018-04-23T12:50:19.883Z,17.88
2018-04-23T12:53:07.913Z,15.42
2018-04-23T12:55:36.178Z,15.30
2018-04-23T12:58:04.508Z,14.18
2018-04-23T13:00:32.783Z,14.78
2018-04-23T13:03:03.073Z,14.74
2018-04-23T13:05:31.381Z,13.90
2018-04-23T13:07:59.662Z,17.06
2018-04-23T13:10:28.923Z,15.78
2018-04-23T13:12:57.660Z,14.70
2018-04-23T13:15:25.954Z,15.10
2018-04-23T13:17:54.226Z,16.78
2018-04-23T13:20:22.529Z,13.90
2018-04-23T13:22:50.798Z,14.00
2018-04-23T13:25:19.087Z,14.08
2018-04-23T13:27:47.348Z,14.30
2018-04-23T13:30:15.650Z,14.28
2018-04-23T13:32:43.909Z,13.82
2018-04-23T13:35:13.303Z,15.18
2018-04-23T13:37:42.309Z,15.04
2018-04-23T13:40:10.589Z,14.80
2018-04-23T13:42:38.925Z,17.64
2018-04-23T13:45:10.602Z,17.58
2018-04-23T13:47:38.907Z,20.04
2018-04-23T13:50:07.203Z,19.84
2018-04-23T13:52:34.689Z,20.58
2018-04-23T13:55:03.948Z,19.20
2018-04-23T13:57:32.291Z,19.78
2018-04-23T14:00:01.553Z,18.88
2018-04-23T14:02:29.868Z,20.86
2018-04-23T14:04:58.162Z,22.44
2018-04-23T14:07:26.426Z,21.54
2018-04-23T14:09:54.733Z,21.64
2018-04-23T14:12:23.001Z,23.08
2018-04-23T14:14:52.191Z,22.90
2018-04-23T14:17:20.472Z,22.70
2018-04-23T14:19:48.733Z,22.94
2018-04-23T14:22:17.025Z,21.52
2018-04-23T14:24:45.285Z,22.12
2018-04-23T14:27:13.553Z,20.78
2018-04-23T14:29:42.836Z,22.86
2018-04-23T14:32:12.207Z,23.58
2018-04-23T14:34:40.501Z,19.92
2018-04-23T14:37:08.833Z,20.70
2018-04-23T14:39:37.128Z,21.04
2018-04-23T14:42:05.456Z,20.58
2018-04-23T14:44:33.722Z,18.32
2018-04-23T14:47:02.977Z,17.80
2018-04-23T14:49:31.249Z,17.98
2018-04-23T14:51:59.556Z,19.36
2018-04-23T14:54:29.390Z,19.40
2018-04-23T14:56:57.771Z,19.62
2018-04-23T14:59:26.108Z,21.12
2018-04-23T15:01:54.337Z,21.66
2018-04-23T15:04:22.638Z,20.06
2018-04-23T15:06:50.895Z,22.10
2018-04-23T15:09:19.187Z,23.20
2018-04-23T15:11:47.490Z,22.36
2018-04-23T15:14:15.749Z,20.50
2018-04-23T15:16:44.009Z,20.84
2018-04-23T15:19:13.544Z,21.28
2018-04-23T15:21:42.885Z,19.70
2018-04-23T15:24:12.183Z,20.50
2018-04-23T15:26:39.678Z,19.76
2018-04-23T15:29:07.988Z,19.56
2018-04-23T15:31:36.260Z,20.82
2018-04-23T15:34:04.555Z,19.80
2018-04-23T15:36:32.834Z,23.96
2018-04-23T15:39:01.138Z,18.84
2018-04-23T15:41:29.439Z,16.16
2018-04-23T15:43:57.784Z,17.48
2018-04-23T15:46:26.089Z,18.04
2018-04-23T15:48:54.358Z,18.48
2018-04-23T15:51:22.649Z,16.58
2018-04-23T15:53:50.990Z,14.74
2018-04-23T15:56:19.268Z,15.24
2018-04-23T15:58:47.553Z,15.20
2018-04-23T16:01:15.866Z,15.36
2018-04-23T16:03:44.131Z,14.34
2018-04-23T16:06:13.571Z,14.44
2018-04-23T16:08:42.816Z,13.80
2018-04-23T16:11:11.075Z,12.32
2018-04-23T16:13:39.385Z,13.46
2018-04-23T16:16:07.672Z,12.36
2018-04-23T16:18:36.070Z,14.08
2018-04-23T16:21:04.329Z,13.78
2018-04-23T16:23:32.630Z,12.96
2018-04-23T16:26:00.926Z,14.20
2018-04-23T16:28:29.034Z,11.52
2018-04-23T16:30:57.736Z,11.80
2018-04-23T16:33:26.016Z,11.06
2018-04-23T16:35:54.310Z,11.24
2018-04-23T16:38:21.808Z,10.84
2018-04-23T16:40:50.093Z,11.20
2018-04-23T16:43:18.360Z,11.90
2018-04-23T16:45:46.655Z,10.32
2018-04-23T16:48:14.950Z,10.26
2018-04-23T16:50:43.265Z,11.18
2018-04-23T16:53:13.040Z,13.24
2018-04-23T16:55:42.294Z,10.92
2018-04-23T16:58:10.589Z,10.56
2018-04-23T17:00:38.847Z,10.72
2018-04-23T17:03:07.148Z,10.32
2018-04-23T17:05:35.409Z,10.92
2018-04-23T17:08:03.780Z,10.56
2018-04-23T17:10:32.111Z,11.62
2018-04-23T17:12:59.623Z,11.08
2018-04-23T17:15:29.054Z,9.64
2018-04-23T17:17:57.588Z,11.26
2018-04-23T17:20:25.877Z,10.36
2018-04-23T17:22:54.168Z,11.00
2018-04-23T17:25:22.470Z,9.92
2018-04-23T17:27:52.714Z,9.84
2018-04-23T17:30:21.005Z,10.02
2018-04-23T17:32:48.505Z,10.98
2018-04-23T17:35:16.806Z,8.62
2018-04-23T17:37:45.072Z,9.28
2018-04-23T17:40:15.816Z,8.00
2018-04-23T17:42:43.321Z,8.62
2018-04-23T17:45:12.382Z,8.08
2018-04-23T17:47:40.703Z,8.00
2018-04-23T17:50:08.972Z,8.48
2018-04-23T17:52:37.246Z,6.68
2018-04-23T17:55:05.609Z,7.58
2018-04-23T17:57:33.094Z,7.80
2018-04-23T18:00:01.377Z,7.30
2018-04-23T18:02:29.711Z,6.82
2018-04-23T18:04:58.876Z,7.32
2018-04-23T18:07:27.850Z,7.54
2018-04-23T18:09:56.112Z,7.46
2018-04-23T18:12:24.416Z,6.92
2018-04-23T18:14:52.673Z,7.12
2018-04-23T18:17:21.065Z,8.72
2018-04-23T18:19:49.323Z,7.78
2018-04-23T18:22:16.847Z,7.80
2018-04-23T18:24:45.146Z,8.00
2018-04-23T18:27:15.499Z,7.46
2018-04-23T18:29:43.800Z,7.18
2018-04-23T18:32:12.411Z,7.32
2018-04-23T18:34:42.296Z,7.18
2018-04-23T18:37:13.312Z,7.52
2018-04-23T18:39:42.557Z,6.58
2018-04-23T18:42:10.125Z,6.56
2018-04-23T18:44:38.398Z,6.40
2018-04-23T18:47:07.744Z,7.00
2018-04-23T18:49:36.065Z,7.10
2018-04-23T18:52:04.353Z,8.32
2018-04-23T18:54:32.732Z,8.62
2018-04-23T18:57:01.023Z,6.42
2018-04-23T18:59:29.287Z,6.52
2018-04-23T19:01:56.825Z,7.30
2018-04-23T19:04:25.161Z,6.32
2018-04-23T19:06:53.429Z,7.04
2018-04-23T19:09:21.741Z,6.86
2018-04-23T19:11:49.325Z,12.24
2018-04-23T19:14:17.613Z,11.60
2018-04-23T19:16:45.925Z,12.30
2018-04-23T19:19:14.205Z,7.02
2018-04-23T19:21:44.491Z,6.62
2018-04-23T19:24:13.520Z,5.16
2018-04-23T19:26:42.669Z,5.36
2018-04-23T19:29:11.301Z,5.46
2018-04-23T19:31:39.656Z,5.78
2018-04-23T19:34:07.874Z,5.58
2018-04-23T19:36:36.189Z,4.72
2018-04-23T19:39:07.158Z,5.00
2018-04-23T19:41:35.493Z,6.04
2018-04-23T19:44:03.768Z,5.50
2018-04-23T19:46:32.165Z,5.66
2018-04-23T19:49:00.448Z,6.02
2018-04-23T19:51:30.072Z,4.62
2018-04-23T19:53:58.679Z,4.66
2018-04-23T19:56:27.031Z,5.16
2018-04-23T19:58:55.342Z,6.48
2018-04-23T20:01:23.649Z,5.88
2018-04-23T20:03:51.945Z,4.60
2018-04-23T20:06:20.281Z,5.34
2018-04-23T20:08:48.549Z,5.28
2018-04-23T20:11:16.928Z,5.60
2018-04-23T20:13:45.216Z,5.90
2018-04-23T20:16:13.492Z,6.08
2018-04-23T20:18:42.797Z,5.38
2018-04-23T20:21:11.064Z,4.84
2018-04-23T20:23:44.149Z,5.08
2018-04-23T20:26:13.535Z,6.14
2018-04-23T20:28:43.033Z,5.48
2018-04-23T20:31:12.496Z,4.46
2018-04-23T20:33:42.515Z,5.02
2018-04-23T20:36:12.510Z,5.52
2018-04-23T20:38:43.872Z,4.90
2018-04-23T20:41:12.320Z,5.62
2018-04-23T20:43:40.625Z,5.02
2018-04-23T20:46:08.967Z,5.40
2018-04-23T20:48:37.275Z,5.30
2018-04-23T20:51:05.568Z,5.62
2018-04-23T20:53:34.801Z,4.86
2018-04-23T20:56:03.095Z,5.16
2018-04-23T20:58:31.448Z,4.44
2018-04-23T21:00:59.735Z,4.80
2018-04-23T21:03:30.334Z,4.10
2018-04-23T21:05:57.908Z,5.30
2018-04-23T21:08:26.245Z,6.36
2018-04-23T21:10:54.530Z,7.42
2018-04-23T21:13:22.785Z,6.92
2018-04-23T21:15:51.089Z,5.40
2018-04-23T21:18:19.348Z,6.06
2018-04-23T21:20:47.665Z,6.14
2018-04-23T21:23:15.957Z,6.32
2018-04-23T21:25:44.259Z,6.44
2018-04-23T21:28:13.893Z,6.48
2018-04-23T21:30:43.493Z,6.50
2018-04-23T21:33:12.657Z,5.58
2018-04-23T21:35:41.795Z,5.28
2018-04-23T21:38:10.081Z,6.50
2018-04-23T21:40:38.345Z,6.02
2018-04-23T21:43:06.635Z,6.66
2018-04-23T21:45:34.897Z,6.04
2018-04-23T21:48:03.153Z,6.80
2018-04-23T21:50:31.451Z,6.60
2018-04-23T21:52:59.748Z,6.80
2018-04-23T21:55:28.795Z,8.14
2018-04-23T21:57:56.288Z,7.46
2018-04-23T22:00:24.586Z,8.10
2018-04-23T22:02:52.869Z,7.92
2018-04-23T22:05:21.234Z,6.62
2018-04-23T22:07:49.474Z,6.70
2018-04-23T22:10:17.754Z,6.72
2018-04-23T22:12:46.059Z,6.24
2018-04-23T22:15:14.320Z,5.92
2018-04-23T22:17:43.686Z,7.16
2018-04-23T22:20:11.967Z,6.84
2018-04-23T22:22:40.234Z,7.24
2018-04-23T22:25:08.527Z,7.14
2018-04-23T22:27:36.788Z,6.70
2018-04-23T22:30:05.048Z,6.72
2018-04-23T22:32:33.333Z,7.22
2018-04-23T22:35:01.596Z,7.74
2018-04-23T22:37:30.295Z,7.10
2018-04-23T22:39:59.505Z,7.64
2018-04-23T22:42:29.013Z,6.22
2018-04-23T22:44:57.867Z,5.98
2018-04-23T22:47:26.133Z,6.26
2018-04-23T22:49:54.437Z,8.04
2018-04-23T22:52:22.693Z,7.42
2018-04-23T22:54:50.957Z,6.22
2018-04-23T22:57:19.228Z,7.72
2018-04-23T22:59:47.520Z,8.64
2018-04-23T23:02:15.816Z,8.36
2018-04-23T23:04:44.105Z,10.00
2018-04-23T23:07:13.809Z,9.32
2018-04-23T23:09:42.537Z,9.38
2018-04-23T23:12:11.046Z,9.76
2018-04-23T23:14:39.321Z,8.82
2018-04-23T23:17:07.625Z,10.20
2018-04-23T23:19:35.910Z,9.34
2018-04-23T23:22:04.192Z,9.86
2018-04-23T23:24:32.464Z,10.12
2018-04-23T23:27:00.744Z,9.04
2018-04-23T23:29:29.733Z,9.08
2018-04-23T23:31:58.022Z,8.38
2018-04-23T23:34:26.276Z,7.76
2018-04-23T23:36:54.576Z,8.68
2018-04-23T23:39:22.833Z,8.50
2018-04-23T23:41:51.088Z,8.30
2018-04-23T23:44:19.384Z,8.10
2018-04-23T23:46:47.636Z,9.56
2018-04-23T23:49:15.984Z,7.96
2018-04-23T23:51:43.442Z,6.82
2018-04-23T23:54:12.735Z,6.84
2018-04-23T23:56:41.041Z,6.32
2018-04-23T23:59:09.295Z,4.84
